Cote D IVoirian Star — A8SL4 — position and weather

sailwx.info

Track history (hours):
 
Tides and Currents Weather Stations Pressure Air Temp Water Temp Dewpoint Dewpoint Depression Visibility Wind Speed Wind Dir Waves Ship Positions

Cote D IVoirian Star

Last reported at 2016-Sep-27 00:33 UTC. Time now 2016-Sep-30 22:04 UTC.
Position N 28°30' W 015°52'.

Length 185 m; draft 8.5 m.

Type: Cargo ship. MMSI: 636014241.

Date/timePositionNaut miles runAvg speedWind from/ knotsBaromVisibWave heightAir tempDewpointWater temp
2016-Sep-27 00:33N 28°30' W 015°52'6816.9
2016-Sep-26 20:33N 29°34' W 015°26'1717.3
2016-Sep-26 19:32N 29°51' W 015°21'  
2016-Sep-23 17:33N 48°59' W 005°38'1616.5
2016-Sep-23 16:33N 49°07' W 005°16'1817.2
2016-Sep-23 15:32N 49°16' W 004°53'9816.3
2016-Sep-23 09:33N 50°01' W 002°39'9318.5
2016-Sep-23 04:33N 50°27' W 000°20'1717.2
2016-Sep-23 03:33N 50°32' E 000°06'2116.1
2016-Sep-23 02:17N 50°39' E 000°36'1915.8
2016-Sep-23 01:06N 50°48' E 001°01'916.8
2016-Sep-23 00:33N 50°53' E 001°14'1918.6
2016-Sep-22 23:33N 51°07' E 001°34'4615.2
2016-Sep-22 20:33N 51°23' E 002°42'59 7.3
2016-Sep-22 12:33N 51°16' E 004°15'1 0.1
2016-Sep-22 04:32N 51°16' E 004°15'0 0.0
2016-Sep-22 03:29N 51°16' E 004°15'0 0.0
2016-Sep-22 00:32N 51°16' E 004°15'0 0.0
2016-Sep-21 23:29N 51°16' E 004°15'0 0.0
2016-Sep-21 22:32N 51°16' E 004°15'0 0.0
2016-Sep-21 19:32N 51°16' E 004°15'0 0.0
2016-Sep-21 16:32N 51°16' E 004°15'0 0.0
2016-Sep-21 09:32N 51°16' E 004°15'0 0.0
2016-Sep-21 08:20N 51°16' E 004°15'0 0.0
2016-Sep-21 03:32N 51°16' E 004°15'0 0.0
2016-Sep-21 02:32N 51°16' E 004°15'0 0.0
2016-Sep-20 17:32N 51°16' E 004°15'0 0.0
2016-Sep-20 14:26N 51°16' E 004°15'0 0.0
2016-Sep-20 13:32N 51°16' E 004°15'0 0.0
2016-Sep-20 10:32N 51°16' E 004°15'0 0.0
2016-Sep-20 08:32N 51°16' E 004°15'0 0.0
2016-Sep-20 07:29N 51°16' E 004°15'0 0.0
2016-Sep-20 06:32N 51°16' E 004°15'0 0.0
2016-Sep-20 02:32N 51°16' E 004°15'0 0.0
2016-Sep-19 23:29N 51°16' E 004°15'0 0.0
2016-Sep-19 19:20N 51°16' E 004°15'0 0.0
2016-Sep-19 18:26N 51°16' E 004°15'0 0.0
2016-Sep-19 16:26N 51°16' E 004°15'0 0.0
2016-Sep-19 14:32N 51°16' E 004°15'0 0.0
2016-Sep-19 13:32N 51°16' E 004°15'0 0.0
2016-Sep-19 12:32N 51°16' E 004°15'0 0.0
2016-Sep-19 11:29N 51°16' E 004°15'0 0.0
2016-Sep-19 09:29N 51°16' E 004°15'0 0.0
2016-Sep-19 07:32N 51°16' E 004°15'0 0.0
2016-Sep-19 06:32N 51°16' E 004°15'0 0.0
2016-Sep-19 03:23N 51°16' E 004°15'0 0.0
2016-Sep-19 02:32N 51°16' E 004°15'0 0.0
2016-Sep-19 00:32N 51°16' E 004°15'5 1.0
2016-Sep-18 19:33N 51°21' E 004°16'34 8.4
2016-Sep-18 15:33N 51°24' E 003°22'1615.7
2016-Sep-18 14:33N 51°23' E 002°57'6315.7
2016-Sep-18 10:33N 50°53' E 001°28'9712.1
2016-Sep-18 02:32N 50°49' W 001°05'0 0.0
2016-Sep-18 01:32N 50°49' W 001°05'0 0.0
2016-Sep-18 00:32N 50°49' W 001°05'0 0.0
2016-Sep-17 22:32N 50°49' W 001°05'0 0.0
2016-Sep-17 21:32N 50°49' W 001°05'0 0.0
2016-Sep-17 20:32N 50°49' W 001°05'0 0.0
2016-Sep-17 19:14N 50°49' W 001°05'0 0.0
2016-Sep-17 13:32N 50°49' W 001°05'0 0.0
2016-Sep-17 12:32N 50°49' W 001°05'5 2.4
2016-Sep-17 10:33N 50°44' W 001°04'8 8.2
2016-Sep-17 09:33N 50°36' W 000°60'1615.4
2016-Sep-17 08:33N 50°26' W 001°18'8220.6
2016-Sep-17 04:33N 49°45' W 003°09'  
Track history (hours):
 
Tides and Currents Weather Stations Pressure Air Temp Water Temp Dewpoint Dewpoint Depression Visibility Wind Speed Wind Dir Waves Ship Positions

Cote D IVoirian Star

Last reported at 2016-Sep-27 00:33 UTC. Time now 2016-Sep-30 22:04 UTC.
Position N 28°30' W 015°52'.

Length 185 m; draft 8.5 m.

Type: Cargo ship. MMSI: 636014241.

Date/timePositionNaut miles runAvg speedWind from/ knotsBaromVisibWave heightAir tempDewpointWater temp
2016-Sep-27 00:33N 28°30' W 015°52'6816.9
2016-Sep-26 20:33N 29°34' W 015°26'1717.3
2016-Sep-26 19:32N 29°51' W 015°21'  
2016-Sep-23 17:33N 48°59' W 005°38'1616.5
2016-Sep-23 16:33N 49°07' W 005°16'1817.2
2016-Sep-23 15:32N 49°16' W 004°53'9816.3
2016-Sep-23 09:33N 50°01' W 002°39'9318.5
2016-Sep-23 04:33N 50°27' W 000°20'1717.2
2016-Sep-23 03:33N 50°32' E 000°06'2116.1
2016-Sep-23 02:17N 50°39' E 000°36'1915.8
2016-Sep-23 01:06N 50°48' E 001°01'916.8
2016-Sep-23 00:33N 50°53' E 001°14'1918.6
2016-Sep-22 23:33N 51°07' E 001°34'4615.2
2016-Sep-22 20:33N 51°23' E 002°42'59 7.3
2016-Sep-22 12:33N 51°16' E 004°15'1 0.1
2016-Sep-22 04:32N 51°16' E 004°15'0 0.0
2016-Sep-22 03:29N 51°16' E 004°15'0 0.0
2016-Sep-22 00:32N 51°16' E 004°15'0 0.0
2016-Sep-21 23:29N 51°16' E 004°15'0 0.0
2016-Sep-21 22:32N 51°16' E 004°15'0 0.0
2016-Sep-21 19:32N 51°16' E 004°15'0 0.0
2016-Sep-21 16:32N 51°16' E 004°15'0 0.0
2016-Sep-21 09:32N 51°16' E 004°15'0 0.0
2016-Sep-21 08:20N 51°16' E 004°15'0 0.0
2016-Sep-21 03:32N 51°16' E 004°15'0 0.0
2016-Sep-21 02:32N 51°16' E 004°15'0 0.0
2016-Sep-20 17:32N 51°16' E 004°15'0 0.0
2016-Sep-20 14:26N 51°16' E 004°15'0 0.0
2016-Sep-20 13:32N 51°16' E 004°15'0 0.0
2016-Sep-20 10:32N 51°16' E 004°15'0 0.0
2016-Sep-20 08:32N 51°16' E 004°15'0 0.0
2016-Sep-20 07:29N 51°16' E 004°15'0 0.0
2016-Sep-20 06:32N 51°16' E 004°15'0 0.0
2016-Sep-20 02:32N 51°16' E 004°15'0 0.0
2016-Sep-19 23:29N 51°16' E 004°15'0 0.0
2016-Sep-19 19:20N 51°16' E 004°15'0 0.0
2016-Sep-19 18:26N 51°16' E 004°15'0 0.0
2016-Sep-19 16:26N 51°16' E 004°15'0 0.0
2016-Sep-19 14:32N 51°16' E 004°15'0 0.0
2016-Sep-19 13:32N 51°16' E 004°15'0 0.0
2016-Sep-19 12:32N 51°16' E 004°15'0 0.0
2016-Sep-19 11:29N 51°16' E 004°15'0 0.0
2016-Sep-19 09:29N 51°16' E 004°15'0 0.0
2016-Sep-19 07:32N 51°16' E 004°15'0 0.0
2016-Sep-19 06:32N 51°16' E 004°15'0 0.0
2016-Sep-19 03:23N 51°16' E 004°15'0 0.0
2016-Sep-19 02:32N 51°16' E 004°15'0 0.0
2016-Sep-19 00:32N 51°16' E 004°15'5 1.0
2016-Sep-18 19:33N 51°21' E 004°16'34 8.4
2016-Sep-18 15:33N 51°24' E 003°22'1615.7
2016-Sep-18 14:33N 51°23' E 002°57'6315.7
2016-Sep-18 10:33N 50°53' E 001°28'9712.1
2016-Sep-18 02:32N 50°49' W 001°05'0 0.0
2016-Sep-18 01:32N 50°49' W 001°05'0 0.0
2016-Sep-18 00:32N 50°49' W 001°05'0 0.0
2016-Sep-17 22:32N 50°49' W 001°05'0 0.0
2016-Sep-17 21:32N 50°49' W 001°05'0 0.0
2016-Sep-17 20:32N 50°49' W 001°05'0 0.0
2016-Sep-17 19:14N 50°49' W 001°05'0 0.0
2016-Sep-17 13:32N 50°49' W 001°05'0 0.0
2016-Sep-17 12:32N 50°49' W 001°05'5 2.4
2016-Sep-17 10:33N 50°44' W 001°04'8 8.2
2016-Sep-17 09:33N 50°36' W 000°60'1615.4
2016-Sep-17 08:33N 50°26' W 001°18'8220.6
2016-Sep-17 04:33N 49°45' W 003°09'  

Dump ship's entire track history